Free Trial

BlackLine (BL) Institutional Ownership

BlackLine logo
$32.34 -1.09 (-3.26%)
Closing price 04:00 PM Eastern
Extended Trading
$33.10 +0.76 (+2.37%)
As of 05:01 PM Eastern
Extended trading is trading that happens on electronic markets outside of regular trading hours. This is a fair market value extended hours price provided by Massive. Learn more.

Institutional Ownership Changes (13F Filings) for BlackLine (NASDAQ:BL)

Current
Institutional Ownership
Percentage
95.13%
Number of
Institutional Buyers
(last 12 months)
159
Total
Institutional Inflows
(last 12 months)
$575.29M
Number of
Institutional Sellers
(last 12 months)
115
Total
Institutional Outflows
(last 12 months)
$387.44M
Get BL Insider Trade Alerts

Want to know when executives and insiders are buying or selling BlackLine stock? Sign up for InsiderTrades.com's daily newsletter to get the latest insider transactions delivered to your inbox daily.

SMS is currently available in Australia, Belgium, Canada, France, Germany, Ireland, Italy, New Zealand, the Netherlands, Singapore, South Africa, Spain, Switzerland, the United Kingdom, and the United States. By entering your phone number and clicking the sign-up button, you agree to receive periodic text messages from MarketBeat at the phone number you submitted, including texts that may be sent using an automatic telephone dialing system. Message and data rates may apply. Message frequency will vary. Messages will consist of stock alerts, news stories, and partner advertisements/offers. Consent is not a condition of the purchase of any goods or services. Text HELP for help/customer support. Unsubscribe at any time by replying "STOP" to any text message that you receive from MarketBeat or by visiting our mailing preferences page. Read our full terms of service and privacy policy.
Skip Chart & View Institutional Buying and Selling Data

BL Institutional Buying and Selling by Quarter

BlackLine Major Shareholders & Ownership History

Reporting DateMajor Shareholder NameShares HeldMarket Value% of PortfolioQuarterly Change in SharesOwnership in CompanyDetails
5/5/2026Illinois Municipal Retirement Fund24,727$915K0.0%-9.8%0.041%
5/4/2026Principal Financial Group Inc.361,796$13.39M0.0%+11.1%0.607%
5/4/2026Schwartz Investment Counsel Inc.175,000$6.48M0.2%-74.6%0.294%
5/4/2026Teachers Retirement System of The State of Kentucky12,497$463K0.0%-3.8%0.021%
4/30/2026 Granite Investment Partners LLC82,990$3.07M0.2%+3.3%0.139%
4/27/2026 New York State Teachers Retirement System13,885$514K0.0%-11.0%0.023%
4/27/2026 Leonteq Securities AG1,086$40K0.0%+1,019.6%0.002%
4/24/2026 Conestoga Capital Advisors LLC1,685,484$62.36M1.2%-8.8%2.827%
4/22/2026 Pictet Asset Management Holding SA8,651$320K0.0%+12.0%0.015%
4/21/2026 Wesbanco Bank Inc.41,400$1.53M0.0%+25.5%0.069%
4/21/2026 Louisiana State Employees Retirement System22,200$821K0.0%N/A0.037%
4/21/2026 Barton Investment Management158,644$5.87M0.7%-1.0%0.266%
4/20/2026 Blue Trust Inc.7,516$278K0.0%+5.0%0.013%
4/16/2026 SG Americas Securities LLC15,275$565K0.0%-32.8%0.026%
3/17/2026Rockefeller Capital Management L.P.5,728$317K0.0%+1,225.9%0.010%
2/25/2026MidFirst Bank2,509$139K0.0%N/A0.004%
2/24/2026Pacer Advisors Inc.2,217$123K0.0%-38.6%0.004%
2/23/2026Virtu Financial LLC3,807$210K0.0%N/A0.006%
2/19/2026Invesco Ltd.226,633$12.53M0.0%-1.0%0.381%
2/18/2026Mercer Global Advisors Inc. ADV3,914$216K0.0%N/A0.007%
2/18/2026Papamarkou Wellner Asset Management inc.6,997$387K0.2%-31.7%0.012%
2/18/2026State of Tennessee Department of Treasury11,561$639K0.0%-7.3%0.019%
2/18/2026Empowered Funds LLC5,820$322K0.0%-63.8%0.010%
2/18/2026Susquehanna Portfolio Strategies LLC21,748$1.20M0.0%-17.9%0.037%
2/18/2026Tudor Investment Corp ET AL73,273$4.05M0.0%N/A0.123%
2/18/2026Susquehanna Fundamental Investments LLC112,010$6.19M0.2%+1,966.6%0.188%
2/18/2026Potrero Capital Research LLC370,557$20.49M6.9%N/A0.623%
2/18/2026Governors Lane LP118,602$6.56M0.4%N/A0.199%
2/18/2026First Manhattan CO. LLC.2,428,604$134.28M0.4%+16.3%4.083%
2/18/2026Cinctive Capital Management LP199,544$11.03M0.6%+30.5%0.335%
2/18/2026Boothbay Fund Management LLC4,555$252K0.0%+8.4%0.008%
2/18/2026Ananym Capital Management LP253,482$14.02M5.8%-42.7%0.426%
2/17/2026Nexpoint Asset Management L.P.35,450$1.96M0.1%N/A0.060%
2/17/2026Hawk Ridge Capital Management LP1,497,631$82.80M3.8%-9.1%2.517%
2/17/2026AQR Capital Management LLC12,409$686K0.0%+20.5%0.021%
2/17/2026 Abel Hall LLC4,334$240K0.1%N/A0.007%
2/17/2026Westerly Capital Management LLC90,000$4.98M1.1%N/A0.151%
2/17/2026Engaged Capital LLC1,083,619$59.91M15.3%+138.8%1.822%
2/17/2026Price T Rowe Associates Inc. MD262,811$14.53M0.0%-60.3%0.442%
2/17/2026Public Employees Retirement System of Ohio107,177$5.93M0.0%-3.1%0.180%
2/17/2026Captrust Financial Advisors5,059$280K0.0%-54.9%0.009%
2/17/2026Blair William & Co. IL85,023$4.70M0.0%+2.2%0.143%
2/16/2026Barclays PLC472,010$26.10M0.0%+4.2%0.793%
2/16/2026Bridge City Capital LLC30,996$1.71M0.5%-13.9%0.052%
2/16/2026Bullseye Asset Management LLC69,042$3.82M2.1%+7.8%0.116%
2/16/2026Atlas Capital Advisors Inc.4,655$257K0.0%N/A0.008%
2/13/2026 Kestra Advisory Services LLC504$28K0.0%N/A0.001%
2/13/2026Marshall Wace LLP8,650$478K0.0%-88.7%0.015%
2/13/2026The Manufacturers Life Insurance Company 23,725$1.31M0.0%-6.8%0.040%
2/13/2026PSquared Asset Management AG304,576$16.84M7.9%N/A0.512%
2/13/2026Soros Fund Management LLC75,000$4.15M0.0%N/A0.126%
2/13/2026CANADA LIFE ASSURANCE Co109,687$6.06M0.0%-11.5%0.184%
2/13/2026Segall Bryant & Hamill LLC191,031$10.56M0.1%-43.6%0.321%
2/13/2026Bridgewater Associates LP33,231$1.84M0.0%-50.0%0.056%
2/13/2026Stifel Financial Corp4,821$267K0.0%-37.2%0.008%
2/13/2026Smartleaf Asset Management LLC1,473$84K0.0%-31.9%0.002%
2/13/2026Public Sector Pension Investment Board172,905$9.56M0.0%-14.7%0.291%
2/13/2026First Trust Advisors LP457,155$25.28M0.0%-11.0%0.768%
2/13/2026Charles Schwab Investment Management Inc.482,801$26.69M0.0%-2.8%0.812%
2/13/2026 Police & Firemen s Retirement System of New Jersey13,802$763K0.0%-5.4%0.023%
2/13/2026UBS AM a distinct business unit of UBS ASSET MANAGEMENT AMERICAS LLC112,934$6.24M0.0%-5.0%0.190%
2/13/2026 Gagnon Securities LLC279,398$15.45M3.1%+0.2%0.470%
2/13/2026Quadrant Capital Group LLC2,386$132K0.0%+130.3%0.004%
2/12/2026HRT Financial LP196,346$10.86M0.0%+292.5%0.330%
2/12/2026MetLife Investment Management LLC29,136$1.61M0.0%-91.0%0.049%
2/12/2026Dimensional Fund Advisors LP882,078$48.78M0.0%+2.8%1.483%
2/12/2026Federated Hermes Inc.200,488$11.09M0.0%+49.0%0.337%
2/12/2026Ensign Peak Advisors Inc4,863$269K0.0%-68.0%0.008%
2/12/2026 Granite Investment Partners LLC80,364$4.44M0.3%-17.5%0.135%
2/12/2026Campbell & CO Investment Adviser LLC15,944$882K0.0%-23.1%0.027%
2/12/2026Geneva Capital Management LLC825,862$45.66M0.9%-10.1%1.388%
2/12/2026Swiss National Bank103,700$5.73M0.0%+1.3%0.174%
2/12/2026Athos Capital Ltd20,000$1.11M0.4%N/A0.034%
2/12/2026 Nuveen LLC116,561$6.45M0.0%-2.3%0.196%
2/11/2026Mcmorgan & Co. LLC8,985$497K0.1%-84.7%0.015%
2/11/2026Empowered Funds LLC5,820$322K0.0%-63.8%0.010%
2/11/2026 Janney Montgomery Scott LLC5,043$279K0.0%N/A0.008%
2/11/2026LPL Financial LLC12,565$695K0.0%-17.9%0.021%
2/11/2026Franklin Resources Inc.5,335$295K0.0%+6.4%0.009%
2/11/2026WINTON GROUP Ltd50,371$2.79M0.1%-51.7%0.085%
2/11/2026State of Wyoming10,426$576K0.1%+30.1%0.018%
2/10/2026 Commonwealth of Pennsylvania Public School Empls Retrmt SYS12,371$684K0.0%-92.9%0.021%
2/10/2026Norges Bank1,461,152$80.79M0.0%N/A2.456%
2/10/2026Jupiter Asset Management Ltd.8,736$483K0.0%-11.5%0.015%
2/10/2026Intech Investment Management LLC18,884$1.04M0.0%-13.3%0.032%
2/9/2026Redmond Asset Management LLC47,262$2.61M0.7%-1.8%0.079%
2/9/2026Geode Capital Management LLC1,245,237$68.86M0.0%-1.4%2.093%
2/9/2026Legal & General Group Plc130,652$7.22M0.0%-8.4%0.220%
2/9/2026 Hantz Financial Services Inc.1,439$80K0.0%+236.2%0.002%
2/6/2026Legato Capital Management LLC4,923$272K0.0%-48.0%0.008%
2/6/2026Global Retirement Partners LLC1,220$67K0.0%+306.7%0.002%
2/6/2026 Hardy Reed LLC3,715$205K0.0%N/A0.006%
2/6/2026 Handelsbanken Fonder AB13,600$752K0.0%-91.0%0.023%
2/5/2026Northwestern Mutual Wealth Management Co.113,197$6.26M0.0%+2,609.4%0.190%
2/5/2026 Thrivent Financial for Lutherans107,740$5.96M0.0%-39.6%0.181%
2/3/2026Crossmark Global Holdings Inc.3,712$205K0.0%N/A0.006%
2/3/2026 Wesbanco Bank Inc.33,000$1.83M0.1%+50.0%0.055%
2/2/2026 Conestoga Capital Advisors LLC1,848,997$102.23M1.7%-10.5%3.108%
2/2/2026 Oppenheimer Asset Management Inc.4,901$271K0.0%-81.8%0.008%
1/30/2026State of New Jersey Common Pension Fund D39,787$2.20M0.0%-1.1%0.067%


BL Institutional Ownership - Frequently Asked Questions

Who are the largest shareholders of BL shares?

During the previous two years, 322 institutional investors and hedge funds held shares of BlackLine. The most heavily invested institutionals were Vanguard Group Inc. ($375.72M), FMR LLC ($271.08M), First Manhattan CO. LLC. ($134.28M), State Street Corp ($116.22M), JPMorgan Chase & Co. ($91.90M), Hawk Ridge Capital Management LP ($82.80M), and Kayne Anderson Rudnick Investment Management LLC ($81.55M).Learn more on BlackLine's institutional investors.

What percentage of BlackLine's stock is owned by institutional investors?

95.13% of BlackLine's stock is owned by institutional investors. Learn more on BL's institutional investor holdings.

Which institutional investors have been buying BlackLine's stock?

Of the 261 institutional investors that purchased BlackLine's stock in the last 24 months, the following investors and hedge funds have bought the highest volume of shares: Norges Bank ($1.93M), Engaged Capital LLC ($1.24M), Westwood Holdings Group Inc. ($1.19M), First Manhattan CO. LLC. ($1.16M), Hawk Ridge Capital Management LP ($1.09M), Topline Capital Management LLC ($996.90K), and American Century Companies Inc. ($956.77K).

How much institutional buying is happening at BlackLine?

Institutional investors have bought a total of 10,858,709 shares in the last 24 months. This purchase volume represents approximately $575.29M in transactions.

Which of BlackLine's major shareholders have been selling company stock?

Of the 114 institutional investors that sold BlackLine's stock in the last 24 months, the following investors and hedge funds have sold the highest volume of shares: American Century Companies Inc. ($730.82K), Riverbridge Partners LLC ($705.19K), Schwartz Investment Counsel Inc. ($515K), Topline Capital Management LLC ($426.97K), Conestoga Capital Advisors LLC ($425.19K), Price T Rowe Associates Inc. MD ($398.41K), and Vanguard Group Inc. ($387.95K).

How much institutional selling is happening at BlackLine?

Institutional investors have sold a total of 7,318,314 shares in the last 24 months. This volume of shares sold represents approximately $387.44M in transactions.



This page (NASDAQ:BL) was last updated on 5/5/2026 by MarketBeat.com Staff.
From Our Partners